Latest Observation

67 Stations

10 Minute Data
as of 5/10/26 3:11 PM PDT
Station Date Time Temp (°F) RH (%) Dew Pt (°F) Wind Spd (mph) Wind Dir (°) Wind Gust (mph) Wind Gst Dir (°) Latest Rain (In) Soil Moist (%) Soil Temp (°F) Daily Rain (In) Daily Min Temp (°F) Daily Max Temp (°F) Daily Max Wind (mph)
Hobart Mills 5/10/26 1510 78.5   4.8 17   6 30.4   4.0 5.1   2.7 SSW | 197 9.8   6.6 S | 174 0.00 - 32.0   0.0 0.03 28.9   0.0 78.8   4.9 11.6   2.1
Prosser Dam 5/10/26 1510 78.3   4.9 19   6 32.9   2.4 8.0   5.0 SSW | 209 16.6   8.1 WSW | 245 0.00 20.2   1.3 53.0   1.0 0.00 33.2   2.7 79.1   5.2 22.7   10.6
West Incline Village 5/10/26 1510 71.7   5.4 25   1 34.0   5.5 5.6   0.1 S | 181 12.4   0.2 S | 186 0.00 31.7   0.5 47.5   0.8 0.00 49.6   5.0 72.8   5.6 14.9   1.6
Incline Village (Fairview Blvd) 5/10/26 1510 73.4   2.8 26   7 36.3   10.0 2.7   0.7 WSW | 253 8.7   1.0 SSW | 209 0.00 25.6   0.3 55.2   1.6 0.00 50.8   4.1 75.3   3.8 12.2   1.2
Incline Village (Diamond Peak) 5/10/26 1510 69.1   4.1 29   8 35.6   11.9 4.4   3.0 WNW | 289 11.0   5.1 W | 277 0.00 8.9   0.2 49.8   1.9 0.00 56.5   6.9 69.5   3.9 12.3   6.7
Incline Village (Mill Creek) 5/10/26 1510 73.7   4.1 27   7 37.5   11.5 2.7   0.2 W | 278 7.9   3.5 WNW | 293 0.00 10.6   0.2 48.6   0.9 0.00 48.9   3.4 74.2   4.1 10.7   5.0
Incline Village (Lakeshore Blvd) 5/10/26 1510 72.4   10.0 37   19 44.0   2.3 2.1   0.3 SW | 220 3.8   0.1 SW | 219 0.00 29.6   0.9 60.5   1.1 0.00 40.8   1.3 73.2   4.6 4.6   9.1
Glenbrook 5/10/26 1510 71.7   8.1 34   12 41.6   0.3 1.7   0.4 WNW | 287 4.3   0.5 WSW | 250 0.00 44.3   0.0 46.1   0.3 0.00 42.7   2.0 72.4   6.9 7.3   10.1
Zephyr Cove 5/10/26 1510 77.3   9.4 21   5 34.8   2.2 0.8   0.1 SSW | 208 3.2   0.1 SW | 226 0.00 - 34.3   0.0 0.00 47.2   2.7 77.5   9.2 4.8   2.2
Kingsbury Grade 5/10/26 1510 75.6   8.7 19   4 29.9   2.6 5.3   0.1 WSW | 241 14.8   2.1 SW | 234 0.00 6.1   0.5 58.7   1.9 0.00 45.3   2.5 77.9   9.8 14.9   4.2
South Daggett Pass (Ridge) 5/10/26 1510 72.0   8.7 21   3 30.3   4.2 4.4   0.4 WNW | 287 14.8   5.3 SSW | 210 0.00 6.6   0.1 51.4   1.4 0.00 55.8   6.5 72.8   8.8 19.2   3.6
Palomino Valley 5/10/26 1510 88.0   9.0 13   3 31.0   2.2 6.8   3.4 S | 182 23.7   6.8 SSW | 206 0.00 7.1   0.0 69.2   0.9 0.00 39.2   2.1 89.5   9.6 23.7   6.0
East Cold Springs 5/10/26 1510 81.8   6.9 17   0 32.1   5.2 13.9   9.3 SW | 229 22.0   8.1 SW | 231 0.00 1.8   0.0 58.4   0.3 0.00 53.9   3.4 83.3   8.1 22.6   1.6
Peavine 5/10/26 1510 78.1   6.0 16   3 28.0   0.3 10.0   5.1 SSW | 211 21.9   10.7 SSW | 192 0.00 - 53.4   0.0 0.00 54.6   8.6 78.9   5.9 23.2   7.1
West Verdi Peak 5/10/26 1510 77.2   5.8 16   3 28.2   0.3 4.9   0.0 WSW | 253 13.5   1.9 W | 280 0.00 17.2   1.5 56.2   0.9 0.00 53.4   5.0 78.4   6.1 18.6   2.6
West Verdi 5/10/26 1510 82.1   5.9 14   4 28.1   1.1 10.8   6.0 SSW | 202 26.2   14.4 SSE | 165 0.00 7.7   0.1 65.9   1.1 0.00 45.9   0.5 83.1   6.1 26.3   11.8
South Verdi 5/10/26 1510 80.4   7.0 17   3 31.1   2.1 22.5   10.6 WSW | 248 35.3   12.8 WSW | 248 0.00 15.9   0.3 68.4   2.2 0.00 54.3   2.6 81.4   7.3 35.3   6.5
Northwest Reno 5/10/26 1510 83.0   6.9 14   1 29.3   3.8 22.4   14.8 WSW | 240 35.2   22.1 W | 267 0.00 23.9   0.0 68.3   1.4 0.00 56.6   2.2 85.1   7.9 38.0   3.6
North Lawton 5/10/26 1510 83.1   6.4 15   2 31.0   2.5 13.9   10.1 SW | 224 23.4   10.9 WSW | 243 0.00 - 60.4   0.0 0.00 50.2   2.2 83.8   6.4 23.7   5.8
West Reno (Mogul) 5/10/26 1510 82.8   6.9 15   2 30.8   3.2 10.6   6.1 WSW | 239 20.6   10.7 SW | 225 0.00 35.6   0.6 64.0   0.8 0.00 49.2   0.7 84.2   7.7 22.8   1.9
Caughlin (Hunter Lake Trail) 9/16/25 0800 59.7   3.5 41   11 35.9   2.7 0.0   0.0 N | 0 0.0   0.0 ENE | 66 0.00 15.7   0.0 69.8   0.5 0.00 55.7   3.2 67.7   9.1 9.4   0.9
ArrowCreek 5/10/26 1510 83.0   7.6 18   2 35.0   8.5 10.9   6.3 SSW | 201 24.8   16.8 S | 169 0.00 - 32.0   0.0 0.00 51.6   1.2 83.8   6.9 24.8   9.6
Tracy 5/10/26 1510 88.2   8.0 13   0 30.5   5.6 12.6   9.0 WSW | 249 21.6   9.1 W | 281 0.00 8.2   0.2 68.2   0.3 0.00 49.6   2.6 89.4   7.8 26.6   6.1
Virginia Highlands 5/10/26 1510 78.1   6.5 19   3 33.0   9.2 8.1   4.6 WSW | 242 21.1   10.9 SW | 236 0.00 7.9   0.2 60.1   1.1 0.00 59.6   6.0 80.0   7.4 22.2   6.0
Virginia City 5/10/26 1510 76.1   5.8 21   4 33.0   9.3 12.1   5.1 WNW | 282 23.6   10.4 W | 272 0.00 8.2   0.1 59.7   1.0 0.00 58.0   4.4 78.0   6.0 23.6   3.5
Six Mile Canyon 9/9/25 0630 60.2   9.6 37   6 33.7   4.8 4.1   2.5 W | 277 6.1   2.9 WNW | 286 0.00 12.5   0.0 75.5   0.7 0.00 57.9   7.6 64.4   1.9 7.0   3.9
Mt Rose Highway 4/30/26 0510 40.8   4.7 47   13 22.3   1.3 2.3   0.2 WSW | 243 4.8   2.1 WSW | 246 0.00 24.1   0.3 43.0   0.8 0.00 40.5   4.7 43.0   5.3 7.7   0.4
Pleasant Valley 5/10/26 1510 83.5   5.3 18   1 35.6   5.8 17.7   14.4 SW | 227 26.4   17.4 SSW | 209 0.00 2.9   0.0 67.4   1.4 0.00 48.3   0.7 84.3   4.9 28.0   14.8
New Washoe City 5/10/26 1510 82.0   6.4 18   0 34.5   5.7 15.5   8.0 SW | 233 24.6   11.4 SW | 229 0.00 4.4   0.0 63.2   1.1 0.00 49.2   1.3 83.5   6.9 25.2   11.0
Franktown Creek 5/10/26 1510 82.1   6.6 20   4 37.6   10.4 4.6   2.7 W | 264 14.3   9.4 NW | 325 0.00 11.2   0.0 59.0   1.0 0.00 47.3   1.9 82.6   6.4 20.6   11.4
Musgrove Creek 5/10/26 1510 79.4   7.9 21   1 36.6   7.4 3.0   0.0 SSW | 209 11.0   4.5 WSW | 254 0.00 39.2   1.8 55.4   0.4 0.00 57.0   4.7 79.6   7.3 13.8   2.2
East Carson 11/23/24 0110 28.6   28.4 - - 4.7   11.0 SW | 220 14.7   10.1 SW | 219 0.02 - 50.9   0.1 0.02 -25.9   79.1 42.9   14.6 16.0   10.7
Kings Canyon 5/10/26 1510 81.4   6.4 21   1 37.3   7.0 7.7   4.1 SW | 230 18.8   9.4 W | 276 0.00 13.7   0.4 61.4   1.1 0.00 48.1   0.8 82.5   6.7 24.3   12.4
Carson City (Voltaire Canyon) 5/10/26 1510 82.7   7.2 19   2 36.2   8.0 14.5   8.2 WSW | 243 26.1   15.3 SW | 217 0.00 2.9   0.1 65.0   1.4 0.00 56.3   2.5 84.5   7.6 26.1   11.3
Jacks Valley 5/10/26 1510 82.3   7.0 20   2 36.8   8.3 13.0   9.9 SW | 234 24.1   15.0 W | 278 0.00 12.8   0.3 74.6   1.3 0.00 50.7   3.2 83.1   7.3 26.7   11.0
Genoa 5/10/26 1510 85.4   8.1 17   1 35.3   5.1 3.6   0.9 SSW | 211 10.7   2.9 ESE | 102 0.00 6.7   0.6 82.8   2.1 0.00 49.2   1.3 86.5   8.5 13.5   4.2
South Genoa (Walleys Hot Springs) 5/10/26 1510 86.5   8.5 15   5 32.8   0.1 9.5   7.3 SE | 144 20.4   14.4 SSE | 161 0.00 13.8   0.9 66.0   1.1 0.00 42.3   1.0 87.0   8.6 22.1   12.0
SW Gardnerville (HWY 88) 5/10/26 1510 82.7   7.0 21   1 38.8   4.5 16.6   10.9 SSW | 199 23.2   13.9 SSW | 202 0.00 3.3   0.1 61.0   1.3 0.01 41.7   0.2 83.2   7.2 26.7   15.9
Sheridan 5/10/26 1510 85.4   9.7 15   7 32.6   1.1 8.2   3.6 SSE | 164 15.9   7.5 SSE | 158 0.00 2.9   0.5 64.4   0.9 0.00 45.1   0.1 86.3   10.0 26.7   16.1
Ruhenstroth 5/10/26 1510 84.9   8.0 15   6 32.5   1.4 11.4   4.9 SSW | 207 21.9   8.1 SSW | 200 0.00 12.3   0.1 64.2   1.3 0.00 45.9   1.1 86.0   8.4 26.4   11.3
Double Spring 5/10/26 1510 79.6   6.5 17   1 30.4   3.8 12.9   8.0 WNW | 288 23.4   12.5 WNW | 296 0.00 30.9   0.1 62.4   1.3 0.00 37.1   3.3 81.0   7.5 30.2   14.5
North Topaz Lake 5/10/26 1510 83.0   7.3 15   1 30.6   7.1 8.1   4.3 SW | 215 15.8   7.7 SW | 223 0.00 10.0   0.0 83.0   1.8 0.00 57.6   3.3 84.3   8.1 19.5   0.1
Wild Oat Mountain 5/10/26 1510 81.2   7.8 16   0 30.0   5.7 12.0   7.4 SSW | 208 19.5   5.6 S | 188 0.00 16.7   0.1 62.7   1.2 0.00 56.5   3.2 82.9   8.2 26.0   12.0
Smith Valley 5/10/26 1510 85.9   8.9 15   2 33.5   4.4 7.5   2.1 ENE | 77 14.0   3.2 NE | 47 0.00 5.8   0.0 66.4   1.4 0.00 49.3   1.3 87.0   8.8 14.0   0.7
Pine Grove Mountain 5/10/26 1510 72.6   9.6 17   4 25.9   3.0 10.9   4.2 W | 266 21.1   7.7 SW | 234 0.00 20.3   0.7 59.0   2.4 0.00 54.8   7.6 74.9   10.3 23.4   7.6
Paradise Hill 5/10/26 1510 84.2   8.7 10   5 21.8   2.4 12.0   9.4 S | 169 20.2   10.3 S | 171 0.00 8.0   0.0 64.3   0.9 0.00 42.6   0.4 84.7   7.8 20.2   3.2
Winnemucca 5/10/26 1510 84.8   7.3 9   4 19.4   2.4 4.4   1.8 SW | 226 9.6   0.5 SW | 221 0.00 5.9   0.0 63.6   0.5 0.00 44.6   6.8 86.4   8.4 19.1   4.0
NE Elko 5/10/26 1510 80.8   6.9 7   2 11.9   0.0 6.5   3.6 SE | 138 12.8   6.3 E | 95 0.00 12.5   0.0 63.7   0.2 0.00 30.6   3.8 81.9   7.0 16.9   4.7
North Elko 5/10/26 1510 79.9   8.3 8   7 12.8   8.9 6.4   1.8 SW | 215 14.2   5.3 SW | 220 0.00 28.4   0.0 60.8   0.3 0.00 43.9   2.6 80.7   8.4 15.8   3.7
South Elko 5/10/26 1510 78.6   9.6 9   10 14.0   10.4 5.9   0.1 SSW | 202 19.2   6.5 S | 181 0.00 18.3   0.1 62.4   1.0 0.00 48.7   0.9 - 19.2   0.4
Lamoille 1/28/26 1720 33.2   0.5 65   17 22.8   6.3 5.8   1.5 SSE | 166 7.7   1.9 SE | 139 0.00 12.2   0.0 33.4   0.1 0.02 23.5   2.0 36.5   5.9 25.6   17.4
Reid Gardner Sub 5/10/26 1510 99.6   0.5 8   2 27.4   7.0 1.5   2.5 ESE | 108 4.2   4.8 SSE | 156 0.00 25.8   0.2 79.6   2.2 0.00 72.8   17.1 100.1   0.6 17.5   5.1
Corn Creek 5/10/26 1510 92.2   0.5 10   1 27.6   3.8 12.9   8.6 E | 92 20.6   8.6 E | 87 0.00 3.9   0.0 86.1   1.7 0.00 72.7   1.7 93.2   1.1 23.0   2.5
Lucky Strike 5/10/26 1510 80.3   0.7 10   2 19.4   4.7 9.1   2.5 E | 101 14.2   0.5 ESE | 117 0.00 4.7   0.1 79.8   0.8 0.00 64.2   1.7 81.7   0.3 23.5   5.7
Lower Angel Peak 5/10/26 1510 75.1   0.2 14   3 21.9   4.3 6.3   0.5 NNW | 348 16.3   2.2 NNW | 340 0.00 9.4   0.1 63.0   1.1 0.00 55.2   0.2 76.0   0.6 22.1   3.5
Angel Peak 5/10/26 1510 65.2   0.6 17   3 18.9   4.7 7.6   4.1 ESE | 121 16.8   9.1 ESE | 116 0.00 3.5   0.2 64.6   0.2 0.00 54.9   1.3 67.4   0.5 22.1   7.7
Upper Kyle Canyon 5/10/26 1510 70.7   3.5 16   4 22.7   2.9 7.2   4.8 ESE | 110 17.4   9.8 E | 98 0.00 12.6   0.3 61.0   0.9 0.00 50.2   8.9 71.9   1.5 18.5   1.6
Mt Charleston 5/10/26 1510 70.6   1.4 16   4 21.7   4.5 3.8   0.5 ENE | 65 12.2   4.1 E | 90 0.00 18.1   0.1 53.8   1.2 0.00 54.5   1.1 72.5   0.7 15.0   0.7
Mid Kyle Canyon 5/10/26 1510 75.5   0.1 13   3 21.9   4.7 10.4   2.1 ENE | 72 25.2   11.3 ENE | 68 0.00 6.9   0.1 64.4   0.6 0.00 56.6   1.1 77.6   0.5 25.2   4.5
Blue Diamond 5/10/26 1510 90.6   0.8 10   2 25.6   4.4 6.0   1.2 ESE | 119 14.2   2.2 SE | 137 0.00 3.1   0.0 77.2   0.1 0.00 57.4   12.4 91.2   1.5 14.5   18.9
Artesian Sub 5/10/26 1510 99.9   0.1 8   2 27.6   4.7 1.3   2.2 SE | 146 5.6   3.6 E | 90 0.00 13.0   0.1 76.5   0.8 0.00 75.4   0.6 101.2   0.1 15.6   2.9
North Henderson 5/10/26 1510 100.0   0.5 8   1 28.2   2.9 3.6   0.6 NE | 50 9.7   0.2 NW | 320 0.00 9.7   0.1 84.2   1.6 0.00 78.4   1.3 100.8   0.1 18.0   1.4
Sandy Valley 5/10/26 1510 95.7   1.6 11   0 31.8   0.2 8.3   3.8 ESE | 118 14.7   5.4 ESE | 105 0.00 4.5   0.0 84.2   1.3 0.00 66.1   3.3 96.2   0.8 23.1   8.1
Searchlight 5/10/26 1510 92.9   0.6 11   1 30.1   2.3 4.7   3.7 E | 95 11.0   4.2 ESE | 103 0.00 4.8   0.0 83.4   1.1 0.00 68.6   1.3 93.8   0.3 24.5   20.5
Laughlin 5/10/26 1510 107.2   1.5 9   2 35.9   3.9 3.7   5.5 SSW | 210 9.2   8.7 SSW | 193 0.00 4.2   0.0 88.6   1.8 0.00 77.6   0.4 107.8   1.1 22.0   2.9
31Mission Hills 5/10/26 1510 96.0   0.2 8   1 25.5   2.0 3.8   4.2 NNE | 20 14.7   4.1 NE | 35 0.00 3.9   0.0 94.8   0.6 0.00 74.6   0.9 96.5   0.1 20.9   0.4
32 Enterprise Sierra Cliffs 5/10/26 1510 92.2   1.7 7   1 20.5   1.1 5.4   1.5 NNE | 28 12.8   1.4 ENE | 57 0.00 2.4   0.1 88.3   1.0 0.00 73.7   1.4 93.1   1.4 16.3   2.1
Max     107.2 37 44.0 22.5 - 35.3 - 0.00 44.3 94.8 0.03 78.4 107.8 38.0
Avg     82.1 16 29.9 8.2 - 16.9 - 0.00 12.8 64.3 - - - -
Min     65.2 7 11.9 0.8 - 3.2 - 0.00 1.8 32.0 0.00 28.9 67.4 4.6